createdAt,value
2019-03-10T00:02:27.737Z,98726.31
2019-03-10T00:04:58.029Z,98732.80
2019-03-10T00:07:28.298Z,98722.30
2019-03-10T00:09:58.922Z,98726.59
2019-03-10T00:12:29.349Z,98722.58
2019-03-10T00:14:59.907Z,98718.69
2019-03-10T00:17:30.537Z,98720.05
2019-03-10T00:20:01.760Z,98706.17
2019-03-10T00:22:32.785Z,98712.72
2019-03-10T00:25:04.081Z,98695.52
2019-03-10T00:27:34.518Z,98685.98
2019-03-10T00:30:15.663Z,98680.14
2019-03-10T00:32:46.050Z,98674.05
2019-03-10T00:35:16.319Z,98674.16
2019-03-10T00:37:46.578Z,98660.02
2019-03-10T00:40:47.218Z,98650.94
2019-03-10T00:43:49.208Z,98646.14
2019-03-10T00:47:00.322Z,98638.36
2019-03-10T00:50:20.903Z,98636.89
2019-03-10T00:53:01.915Z,98625.67
2019-03-10T00:55:32.566Z,98620.87
2019-03-10T00:58:02.841Z,98611.01
2019-03-10T01:00:33.421Z,98612.81
2019-03-10T01:03:04.095Z,98616.14
2019-03-10T01:05:36.024Z,98594.42
2019-03-10T01:08:06.666Z,98596.41
2019-03-10T01:10:37.460Z,98581.30
2019-03-10T01:13:07.926Z,98590.89
2019-03-10T01:15:39.172Z,98588.33
2019-03-10T01:18:13.421Z,98572.89
2019-03-10T01:20:44.204Z,98571.08
2019-03-10T01:23:14.778Z,98566.47
2019-03-10T01:25:45.162Z,98568.09
2019-03-10T01:28:15.695Z,98560.77
2019-03-10T01:30:53.340Z,98559.41
2019-03-10T01:33:34.180Z,98571.98
2019-03-10T01:36:06.350Z,98568.75
2019-03-10T01:38:36.912Z,98583.59
2019-03-10T01:41:07.201Z,98597.42
2019-03-10T01:43:37.399Z,98600.14
2019-03-10T01:46:08.073Z,98601.94
2019-03-10T01:48:38.700Z,98609.05
2019-03-10T01:51:09.122Z,98627.56
2019-03-10T01:53:39.840Z,98614.05
2019-03-10T01:56:10.572Z,98632.55
2019-03-10T01:58:40.836Z,98624.08
2019-03-10T02:01:11.469Z,98631.34
2019-03-10T02:03:42.088Z,98641.41
2019-03-10T02:06:12.836Z,98648.58
2019-03-10T02:08:43.467Z,98656.20
2019-03-10T02:11:13.787Z,98670.08
2019-03-10T02:13:44.332Z,98664.37
2019-03-10T02:16:14.740Z,98669.90
2019-03-10T02:18:45.318Z,98676.59
2019-03-10T02:21:15.583Z,98674.68
2019-03-10T02:23:46.151Z,98686.94
2019-03-10T02:26:16.437Z,98685.64
2019-03-10T02:28:46.638Z,98689.94
2019-03-10T02:31:17.228Z,98711.45
2019-03-10T02:33:47.492Z,98709.86
2019-03-10T02:36:19.604Z,98709.86
2019-03-10T02:38:49.866Z,98721.11
2019-03-10T02:41:20.450Z,98722.00
2019-03-10T02:43:50.719Z,98746.34
2019-03-10T02:46:21.007Z,98743.30
2019-03-10T02:48:51.664Z,98756.20
2019-03-10T02:51:22.329Z,98756.20
2019-03-10T02:53:52.962Z,98788.59
2019-03-10T02:56:23.613Z,98781.23
2019-03-10T02:58:53.899Z,98797.37
2019-03-10T03:01:24.538Z,98819.07
2019-03-10T03:03:55.195Z,98831.70
2019-03-10T03:06:25.500Z,98833.81
2019-03-10T03:08:56.051Z,98850.14
2019-03-10T03:11:26.903Z,98869.73
2019-03-10T03:13:57.182Z,98887.35
2019-03-10T03:16:27.424Z,98879.09
2019-03-10T03:18:58.128Z,98902.44
2019-03-10T03:21:42.428Z,98895.96
2019-03-10T03:24:00.644Z,98899.48
2019-03-10T03:26:31.308Z,98914.48
2019-03-10T03:29:02.611Z,98922.46
2019-03-10T03:31:32.833Z,98935.48
2019-03-10T03:34:03.015Z,98947.17
2019-03-10T03:36:36.099Z,98956.93
2019-03-10T03:39:17.487Z,98962.97
2019-03-10T03:41:47.976Z,98958.80
2019-03-10T03:44:18.510Z,98961.42
2019-03-10T03:46:49.172Z,98995.37
2019-03-10T03:49:19.452Z,98999.42
2019-03-10T03:51:50.017Z,99011.46
2019-03-10T03:54:20.682Z,99020.55
2019-03-10T03:56:50.937Z,99034.66
2019-03-10T03:59:21.163Z,99038.30
2019-03-10T04:01:56.315Z,99036.80
2019-03-10T04:04:26.936Z,99048.85
2019-03-10T04:06:57.576Z,99057.75
2019-03-10T04:09:28.286Z,99072.62
2019-03-10T04:11:58.536Z,99061.19
2019-03-10T04:14:29.130Z,99079.41
2019-03-10T04:17:00.375Z,99083.62
2019-03-10T04:19:31.557Z,99077.75
2019-03-10T04:22:02.098Z,99077.87
2019-03-10T04:24:32.389Z,99097.31
2019-03-10T04:27:02.996Z,99091.12
2019-03-10T04:29:33.713Z,99065.57
2019-03-10T04:32:04.079Z,99089.77
2019-03-10T04:34:34.285Z,99096.27
2019-03-10T04:37:04.908Z,99104.39
2019-03-10T04:39:35.632Z,99107.42
2019-03-10T04:42:06.362Z,99116.48
2019-03-10T04:44:37.005Z,99113.45
2019-03-10T04:47:08.889Z,99122.84
2019-03-10T04:49:39.542Z,99116.52
2019-03-10T04:52:10.212Z,99134.63
2019-03-10T04:54:57.138Z,99152.03
2019-03-10T04:57:27.338Z,99135.13
2019-03-10T04:59:57.561Z,99130.61
2019-03-10T05:02:28.749Z,99141.13
2019-03-10T05:04:59.298Z,99148.92
2019-03-10T05:07:29.576Z,99138.32
2019-03-10T05:09:59.784Z,99140.73
2019-03-10T05:12:30.363Z,99149.89
2019-03-10T05:15:00.987Z,99148.19
2019-03-10T05:17:31.679Z,99146.60
2019-03-10T05:20:01.923Z,99154.84
2019-03-10T05:22:32.129Z,99155.73
2019-03-10T05:25:02.707Z,99162.57
2019-03-10T05:27:33.261Z,99152.77
2019-03-10T05:30:05.835Z,99155.69
2019-03-10T05:32:36.104Z,99152.52
2019-03-10T05:35:07.873Z,99150.38
2019-03-10T05:37:38.078Z,99163.09
2019-03-10T05:40:09.709Z,99162.79
2019-03-10T05:42:40.413Z,99170.18
2019-03-10T05:45:11.282Z,99176.58
2019-03-10T05:47:42.075Z,99164.16
2019-03-10T05:50:12.370Z,99170.77
2019-03-10T05:52:42.621Z,99173.88
2019-03-10T05:55:12.843Z,99176.54
2019-03-10T05:57:43.429Z,99181.87
2019-03-10T06:00:14.110Z,99190.30
2019-03-10T06:02:44.797Z,99188.64
2019-03-10T06:05:15.369Z,99192.65
2019-03-10T06:07:45.687Z,99186.77
2019-03-10T06:10:16.232Z,99208.89
2019-03-10T06:12:46.506Z,99204.95
2019-03-10T06:15:16.853Z,99210.23
2019-03-10T06:17:47.517Z,99228.50
2019-03-10T06:20:18.188Z,99214.41
2019-03-10T06:22:48.856Z,99216.11
2019-03-10T06:25:19.583Z,99240.30
2019-03-10T06:27:49.863Z,99219.28
2019-03-10T06:30:20.082Z,99216.99
2019-03-10T06:32:50.765Z,99224.88
2019-03-10T06:35:21.059Z,99217.36
2019-03-10T06:37:51.314Z,99229.25
2019-03-10T06:40:31.611Z,99232.62
2019-03-10T06:42:53.862Z,99225.31
2019-03-10T06:45:24.447Z,99238.44
2019-03-10T06:47:55.183Z,99234.75
2019-03-10T06:50:25.807Z,99234.89
2019-03-10T06:52:56.163Z,99226.21
2019-03-10T06:55:26.839Z,99232.20
2019-03-10T06:57:57.119Z,99232.89
2019-03-10T07:00:27.744Z,99239.83
2019-03-10T07:02:58.389Z,99224.63
2019-03-10T07:05:28.655Z,99239.60
2019-03-10T07:07:58.871Z,99235.27
2019-03-10T07:10:29.199Z,99251.02
2019-03-10T07:13:01.458Z,99245.13
2019-03-10T07:15:31.810Z,99248.70
2019-03-10T07:18:02.000Z,99249.50
2019-03-10T07:20:32.557Z,99252.93
2019-03-10T07:23:04.840Z,99249.64
2019-03-10T07:25:35.551Z,99274.20
2019-03-10T07:28:08.889Z,99262.61
2019-03-10T07:30:40.817Z,99245.59
2019-03-10T07:33:32.347Z,99263.98
2019-03-10T07:36:04.353Z,99271.91
2019-03-10T07:38:42.093Z,99259.29
2019-03-10T07:41:30.226Z,99257.84
2019-03-10T07:44:07.827Z,99263.69
2019-03-10T07:46:49.081Z,99251.36
2019-03-10T07:49:27.140Z,99250.31
2019-03-10T07:51:59.087Z,99260.86
2019-03-10T07:54:32.613Z,99252.38
2019-03-10T07:57:12.210Z,99245.63
2019-03-10T08:00:00.392Z,99247.34
2019-03-10T08:02:47.185Z,99253.30
2019-03-10T08:05:17.531Z,99246.76
2019-03-10T08:08:05.988Z,99245.78
2019-03-10T08:10:46.641Z,99244.25
2019-03-10T08:13:35.206Z,99255.66
2019-03-10T08:16:23.987Z,99244.36
2019-03-10T08:19:14.155Z,99245.81
2019-03-10T08:21:46.383Z,99237.09
2019-03-10T08:24:27.669Z,99230.52
2019-03-10T08:27:15.914Z,99234.38
2019-03-10T08:29:47.773Z,99232.93
2019-03-10T08:32:25.455Z,99245.30
2019-03-10T08:35:06.559Z,99249.75
2019-03-10T08:37:38.472Z,99216.02
2019-03-10T08:40:18.028Z,99209.62
2019-03-10T08:43:07.969Z,99184.84
2019-03-10T08:45:40.156Z,99210.20
2019-03-10T08:48:18.403Z,99216.67
2019-03-10T08:50:57.610Z,99209.33
2019-03-10T08:53:29.885Z,99218.34
2019-03-10T08:56:02.183Z,99217.84
2019-03-10T08:58:38.536Z,99223.64
2019-03-10T09:01:10.550Z,99216.84
2019-03-10T09:03:54.786Z,99210.33
2019-03-10T09:06:30.891Z,99200.23
2019-03-10T09:09:03.162Z,99197.41
2019-03-10T09:11:36.696Z,99210.88
2019-03-10T09:14:09.725Z,99217.19
2019-03-10T09:16:42.984Z,99213.22
2019-03-10T09:19:15.249Z,99212.56
2019-03-10T09:21:52.995Z,99214.53
2019-03-10T09:24:27.776Z,99217.21
2019-03-10T09:27:05.477Z,99216.57
2019-03-10T09:29:53.209Z,99213.20
2019-03-10T09:32:37.710Z,99214.28
2019-03-10T09:35:09.726Z,99207.12
2019-03-10T09:37:42.075Z,99208.11
2019-03-10T09:40:26.293Z,99193.98
2019-03-10T09:42:59.971Z,99204.22
2019-03-10T09:45:31.896Z,99206.75
2019-03-10T09:48:04.108Z,99198.96
2019-03-10T09:50:39.325Z,99195.46
2019-03-10T09:53:09.705Z,99210.77
2019-03-10T09:55:50.578Z,99205.20
2019-03-10T09:58:29.957Z,99201.16
2019-03-10T10:01:02.322Z,99196.83
2019-03-10T10:03:41.331Z,99203.16
2019-03-10T10:06:19.431Z,99206.38
2019-03-10T10:08:54.684Z,99201.58
2019-03-10T10:11:27.006Z,99213.31
2019-03-10T10:13:59.826Z,99223.02
2019-03-10T10:16:31.777Z,99214.66
2019-03-10T10:19:03.658Z,99214.89
2019-03-10T10:21:50.315Z,99209.87
2019-03-10T10:24:22.543Z,99200.60
2019-03-10T10:27:00.435Z,99211.59
2019-03-10T10:29:30.832Z,99200.86
2019-03-10T10:32:11.652Z,99208.03
2019-03-10T10:34:59.461Z,99204.64
2019-03-10T10:37:48.134Z,99211.41
2019-03-10T10:40:20.174Z,99206.64
2019-03-10T10:43:17.080Z,99201.28
2019-03-10T10:46:01.266Z,99193.91
2019-03-10T10:48:41.935Z,99201.06
2019-03-10T10:51:14.163Z,99189.98
2019-03-10T10:53:48.943Z,99195.36
2019-03-10T10:56:33.321Z,99200.23
2019-03-10T10:59:23.814Z,99195.42
2019-03-10T11:01:56.087Z,99199.21
2019-03-10T11:04:30.572Z,99201.58
2019-03-10T11:07:03.394Z,99187.98
2019-03-10T11:09:37.697Z,99188.70
2019-03-10T11:12:14.094Z,99202.39
2019-03-10T11:14:48.872Z,99186.52
2019-03-10T11:17:26.825Z,99190.53
2019-03-10T11:20:01.512Z,99187.53
2019-03-10T11:22:42.090Z,99172.23
2019-03-10T11:25:32.344Z,99168.19
2019-03-10T11:28:04.625Z,99161.44
2019-03-10T11:30:53.064Z,99166.53
2019-03-10T11:33:41.167Z,99155.94
2019-03-10T11:36:18.759Z,99166.32
2019-03-10T11:38:50.634Z,99163.17
2019-03-10T11:41:33.661Z,99156.61
2019-03-10T11:44:18.823Z,99156.28
2019-03-10T11:46:59.381Z,99151.39
2019-03-10T11:49:50.244Z,99147.03
2019-03-10T11:52:22.164Z,99150.61
2019-03-10T11:54:59.979Z,99146.64
2019-03-10T11:57:33.379Z,99162.28
2019-03-10T12:00:15.338Z,99159.15
2019-03-10T12:03:03.322Z,99146.20
2019-03-10T12:05:37.886Z,99154.52
2019-03-10T12:08:25.152Z,99142.74
2019-03-10T12:10:55.400Z,99143.38
2019-03-10T12:13:25.625Z,99158.14
2019-03-10T12:15:56.323Z,99158.48
2019-03-10T12:18:26.552Z,99159.81
2019-03-10T12:20:56.971Z,99150.91
2019-03-10T12:23:27.251Z,99146.20
2019-03-10T12:25:57.468Z,99155.17
2019-03-10T12:28:27.743Z,99146.13
2019-03-10T12:30:57.963Z,99146.28
2019-03-10T12:33:28.535Z,99157.20
2019-03-10T12:35:58.801Z,99148.14
2019-03-10T12:38:29.016Z,99144.98
2019-03-10T12:40:59.601Z,99141.98
2019-03-10T12:43:31.536Z,99135.09
2019-03-10T12:46:01.820Z,99121.88
2019-03-10T12:48:32.521Z,99122.49
2019-03-10T12:51:02.804Z,99121.95
2019-03-10T12:53:33.906Z,99120.50
2019-03-10T12:56:04.509Z,99115.42
2019-03-10T12:58:35.064Z,99119.80
2019-03-10T13:01:06.745Z,99108.89
2019-03-10T13:03:38.114Z,99113.27
2019-03-10T13:06:08.632Z,99108.34
2019-03-10T13:08:38.835Z,99112.96
2019-03-10T13:11:09.062Z,99106.35
2019-03-10T13:13:39.907Z,99084.01
2019-03-10T13:16:12.275Z,99098.34
2019-03-10T13:18:42.108Z,99097.83
2019-03-10T13:21:12.309Z,99100.32
2019-03-10T13:23:42.535Z,99095.00
2019-03-10T13:26:12.803Z,99090.64
2019-03-10T13:28:43.537Z,99087.55
2019-03-10T13:31:14.191Z,99081.64
2019-03-10T13:33:44.815Z,99085.78
2019-03-10T13:36:16.470Z,99079.63
2019-03-10T13:38:46.757Z,99085.89
2019-03-10T13:41:17.030Z,99073.88
2019-03-10T13:43:47.203Z,99061.09
2019-03-10T13:46:17.768Z,99068.09
2019-03-10T13:48:48.167Z,99058.25
2019-03-10T13:51:18.399Z,99052.19
2019-03-10T13:53:48.766Z,99051.27
2019-03-10T13:56:20.085Z,99053.43
2019-03-10T13:58:50.739Z,99044.41
2019-03-10T14:01:21.423Z,99040.79
2019-03-10T14:03:52.222Z,99033.41
2019-03-10T14:06:22.507Z,99024.80
2019-03-10T14:08:53.096Z,99020.44
2019-03-10T14:11:23.700Z,99008.36
2019-03-10T14:13:53.946Z,99001.77
2019-03-10T14:16:24.535Z,98997.02
2019-03-10T14:18:55.575Z,98986.24
2019-03-10T14:21:25.799Z,98983.10
2019-03-10T14:23:56.350Z,98979.48
2019-03-10T14:26:26.715Z,98975.89
2019-03-10T14:28:57.339Z,98968.44
2019-03-10T14:31:27.636Z,98968.84
2019-03-10T14:33:58.185Z,98963.73
2019-03-10T14:36:28.487Z,98962.81
2019-03-10T14:38:59.205Z,98961.05
2019-03-10T14:41:29.842Z,98955.31
2019-03-10T14:44:00.561Z,98954.92
2019-03-10T14:46:31.263Z,98932.34
2019-03-10T14:49:01.569Z,98953.84
2019-03-10T14:51:31.774Z,98945.47
2019-03-10T14:54:02.028Z,98944.63
2019-03-10T14:56:32.572Z,98933.11
2019-03-10T14:59:02.859Z,98931.72
2019-03-10T15:01:33.086Z,98933.78
2019-03-10T15:04:03.307Z,98929.78
2019-03-10T15:06:33.546Z,98920.38
2019-03-10T15:09:05.324Z,98926.87
2019-03-10T15:11:37.532Z,98914.62
2019-03-10T15:14:07.855Z,98909.70
2019-03-10T15:16:38.694Z,98904.78
2019-03-10T15:19:08.965Z,98902.78
2019-03-10T15:21:39.196Z,98902.93
2019-03-10T15:24:09.785Z,98902.77
2019-03-10T15:26:45.776Z,98900.30
2019-03-10T15:29:12.689Z,98897.18
2019-03-10T15:31:43.333Z,98891.19
2019-03-10T15:34:13.985Z,98889.97
2019-03-10T15:36:44.252Z,98887.81
2019-03-10T15:39:14.831Z,98877.70
2019-03-10T15:41:45.130Z,98872.11
2019-03-10T15:44:15.833Z,98869.19
2019-03-10T15:46:46.095Z,98863.45
2019-03-10T15:49:16.586Z,98858.74
2019-03-10T15:51:46.808Z,98857.34
2019-03-10T15:54:17.017Z,98863.30
2019-03-10T15:56:48.510Z,98846.72
2019-03-10T15:59:20.622Z,98844.78
2019-03-10T16:01:50.964Z,98839.64
2019-03-10T16:04:21.798Z,98829.71
2019-03-10T16:06:54.056Z,98826.48
2019-03-10T16:09:24.780Z,98823.69
2019-03-10T16:11:57.061Z,98820.17
2019-03-10T16:14:27.361Z,98813.55
2019-03-10T16:16:57.562Z,98806.41
2019-03-10T16:19:29.163Z,98801.98
2019-03-10T16:21:59.443Z,98799.52
2019-03-10T16:24:30.011Z,98797.55
2019-03-10T16:27:00.660Z,98781.86
2019-03-10T16:29:30.953Z,98783.77
2019-03-10T16:32:01.280Z,98780.56
2019-03-10T16:34:31.837Z,98788.95
2019-03-10T16:37:02.453Z,98783.44
2019-03-10T16:39:33.066Z,98778.30
2019-03-10T16:42:03.912Z,98773.94
2019-03-10T16:44:34.574Z,98769.02
2019-03-10T16:47:05.216Z,98770.45
2019-03-10T16:49:35.843Z,98762.47
2019-03-10T16:52:06.224Z,98761.62
2019-03-10T16:54:36.625Z,98758.63
2019-03-10T16:57:08.917Z,98757.33
2019-03-10T16:59:39.518Z,98761.69
2019-03-10T17:02:10.671Z,98758.77
2019-03-10T17:04:41.256Z,98753.42
2019-03-10T17:07:11.608Z,98756.17
2019-03-10T17:09:42.602Z,98767.94
2019-03-10T17:12:12.825Z,98767.03
2019-03-10T17:14:43.104Z,98769.75
2019-03-10T17:17:14.570Z,98772.94
2019-03-10T17:19:46.651Z,98769.23
2019-03-10T17:22:18.020Z,98771.39
2019-03-10T17:24:52.099Z,98770.88
2019-03-10T17:27:22.331Z,98772.31
2019-03-10T17:29:52.560Z,98770.23
2019-03-10T17:32:24.973Z,98768.87
2019-03-10T17:34:55.695Z,98764.77
2019-03-10T17:37:29.000Z,98760.13
2019-03-10T17:39:59.733Z,98765.33
2019-03-10T17:42:30.391Z,98748.77
2019-03-10T17:45:01.321Z,98734.92
2019-03-10T17:47:31.712Z,98742.59
2019-03-10T17:50:01.947Z,98735.20
2019-03-10T17:52:33.168Z,98734.81
2019-03-10T17:55:05.023Z,98733.13
2019-03-10T17:57:36.451Z,98735.10
2019-03-10T18:00:12.203Z,98730.03
2019-03-10T18:02:42.632Z,98732.23
2019-03-10T18:05:12.932Z,98733.02
2019-03-10T18:07:43.208Z,98722.48
2019-03-10T18:10:15.648Z,98723.26
2019-03-10T18:12:46.124Z,98724.32
2019-03-10T18:15:18.246Z,98717.69
2019-03-10T18:17:48.443Z,98719.69
2019-03-10T18:20:24.441Z,98718.91
2019-03-10T18:22:55.052Z,98722.17
2019-03-10T18:25:25.900Z,98717.61
2019-03-10T18:27:57.687Z,98716.50
2019-03-10T18:30:28.495Z,98711.76
2019-03-10T18:32:58.772Z,98706.42
2019-03-10T18:35:30.080Z,98712.80
2019-03-10T18:38:01.924Z,98710.20
2019-03-10T18:40:32.667Z,98701.75
2019-03-10T18:43:02.993Z,98699.03
2019-03-10T18:45:35.549Z,98690.19
2019-03-10T18:48:06.216Z,98689.68
2019-03-10T18:50:36.942Z,98675.37
2019-03-10T18:53:07.249Z,98672.57
2019-03-10T18:55:37.819Z,98663.16
2019-03-10T18:58:08.111Z,98665.93
2019-03-10T19:00:38.401Z,98666.05
2019-03-10T19:03:08.752Z,98660.41
2019-03-10T19:05:39.033Z,98645.88
2019-03-10T19:08:09.348Z,98636.46
2019-03-10T19:10:39.581Z,98629.25
2019-03-10T19:13:10.139Z,98629.09
2019-03-10T19:15:40.452Z,98628.42
2019-03-10T19:18:11.023Z,98620.19
2019-03-10T19:20:41.663Z,98614.00
2019-03-10T19:23:11.971Z,98614.52
2019-03-10T19:25:42.565Z,98616.38
2019-03-10T19:28:12.828Z,98617.11
2019-03-10T19:30:43.041Z,98613.73
2019-03-10T19:33:13.253Z,98608.94
2019-03-10T19:35:43.470Z,98604.42
2019-03-10T19:38:14.053Z,98595.80
2019-03-10T19:40:51.067Z,98584.20
2019-03-10T19:43:21.762Z,98580.03
2019-03-10T19:45:52.477Z,98572.38
2019-03-10T19:48:22.791Z,98572.44
2019-03-10T19:50:53.019Z,98573.22
2019-03-10T19:53:23.589Z,98567.52
2019-03-10T19:55:53.855Z,98562.28
2019-03-10T19:58:24.442Z,98560.89
2019-03-10T20:00:54.718Z,98559.81
2019-03-10T20:03:25.001Z,98544.77
2019-03-10T20:05:55.523Z,98546.97
2019-03-10T20:08:25.819Z,98536.48
2019-03-10T20:10:56.029Z,98514.91
2019-03-10T20:13:26.266Z,98496.89
2019-03-10T20:15:57.554Z,98495.33
2019-03-10T20:18:27.803Z,98490.44
2019-03-10T20:20:58.015Z,98487.92
2019-03-10T20:23:28.597Z,98485.23
2019-03-10T20:26:00.208Z,98486.86
2019-03-10T20:28:32.122Z,98482.47
2019-03-10T20:31:02.350Z,98480.72
2019-03-10T20:33:32.949Z,98476.39
2019-03-10T20:36:03.291Z,98472.62
2019-03-10T20:38:33.864Z,98466.81
2019-03-10T20:41:04.530Z,98462.03
2019-03-10T20:43:35.174Z,98457.69
2019-03-10T20:46:05.887Z,98453.75
2019-03-10T20:48:36.526Z,98463.88
2019-03-10T20:51:07.174Z,98453.27
2019-03-10T20:53:37.513Z,98452.48
2019-03-10T20:56:08.095Z,98443.81
2019-03-10T20:58:38.572Z,98440.19
2019-03-10T21:01:10.215Z,98429.32
2019-03-10T21:03:40.886Z,98423.87
2019-03-10T21:06:11.635Z,98412.48
2019-03-10T21:08:41.906Z,98409.17
2019-03-10T21:11:12.682Z,98408.20
2019-03-10T21:13:42.936Z,98390.07
2019-03-10T21:16:16.488Z,98387.60
2019-03-10T21:18:48.225Z,98373.48
2019-03-10T21:21:20.894Z,98375.27
2019-03-10T21:23:51.102Z,98377.22
2019-03-10T21:26:21.756Z,98369.97
2019-03-10T21:28:52.381Z,98358.55
2019-03-10T21:31:22.735Z,98359.58
2019-03-10T21:33:53.736Z,98360.09
2019-03-10T21:36:24.409Z,98347.41
2019-03-10T21:38:54.685Z,98327.09
2019-03-10T21:41:26.566Z,98320.48
2019-03-10T21:43:57.125Z,98310.00
2019-03-10T21:46:27.737Z,98310.14
2019-03-10T21:48:58.291Z,98306.18
2019-03-10T21:51:28.983Z,98324.77
2019-03-10T21:53:59.274Z,98317.64
2019-03-10T21:56:29.832Z,98316.02
2019-03-10T21:59:00.858Z,98314.39
2019-03-10T22:01:31.132Z,98312.41
2019-03-10T22:04:01.344Z,98303.80
2019-03-10T22:06:33.214Z,98302.23
2019-03-10T22:09:04.991Z,98303.27
2019-03-10T22:11:37.179Z,98309.49
2019-03-10T22:14:07.881Z,98298.66
2019-03-10T22:16:38.543Z,98294.72
2019-03-10T22:19:08.829Z,98299.23
2019-03-10T22:21:40.296Z,98303.90
2019-03-10T22:24:10.523Z,98296.50
2019-03-10T22:26:40.737Z,98295.89
2019-03-10T22:29:10.991Z,98274.92
2019-03-10T22:31:41.627Z,98272.59
2019-03-10T22:34:12.207Z,98271.44
2019-03-10T22:36:45.685Z,98264.05
2019-03-10T22:39:16.278Z,98258.41
2019-03-10T22:41:46.558Z,98259.23
2019-03-10T22:44:17.149Z,98243.25
2019-03-10T22:46:47.508Z,98244.75
2019-03-10T22:49:18.999Z,98241.38
2019-03-10T22:51:49.657Z,98223.52
2019-03-10T22:54:23.147Z,98221.12
2019-03-10T22:56:53.818Z,98208.61
2019-03-10T22:59:25.422Z,98201.30
2019-03-10T23:01:56.047Z,98196.34
2019-03-10T23:04:26.332Z,98197.36
2019-03-10T23:06:56.902Z,98182.86
2019-03-10T23:09:30.331Z,98181.52
2019-03-10T23:12:02.314Z,98181.77
2019-03-10T23:14:32.876Z,98172.53
2019-03-10T23:17:03.238Z,98170.17
2019-03-10T23:19:34.304Z,98165.91
2019-03-10T23:22:04.601Z,98166.83
2019-03-10T23:24:34.823Z,98150.34
2019-03-10T23:27:05.416Z,98154.67
2019-03-10T23:29:36.069Z,98141.67
2019-03-10T23:32:06.357Z,98133.98
2019-03-10T23:34:36.840Z,98133.09
2019-03-10T23:37:07.085Z,98125.13
2019-03-10T23:39:38.266Z,98138.58
2019-03-10T23:42:08.832Z,98118.97
2019-03-10T23:44:39.465Z,98119.48
2019-03-10T23:47:10.124Z,98128.15
2019-03-10T23:49:40.752Z,98124.39
2019-03-10T23:52:11.474Z,98127.19
2019-03-10T23:54:41.753Z,98119.50
2019-03-10T23:57:11.993Z,98120.77
2019-03-10T23:59:42.210Z,98115.36
